Time;durP1;ratioP1;P1;durP2;ratioP2;P2;SDS_P1;SDS_P2;PMS_P1;PMS_P2;Temp;Humidity;BMP_temperature;BMP_pressure;BME280_temperature;BME280_humidity;BME280_pressure;Samples;Min_cycle;Max_cycle;Signal;HPM_P1;HPM_P2
2023/01/07 00:01:02;;;;;;;2.42;2.22;;;;;;;;;;6110032;23;20020;-92
2023/01/07 00:03:30;;;;;;;4.85;2.88;;;;;;;;;;6107804;23;20026;-91
2023/01/07 00:06:00;;;;;;;2.13;1.88;;;;;;;;;;6098799;23;20025;-92
2023/01/07 00:08:30;;;;;;;4.37;2.37;;;;;;;;;;6099521;23;20021;-92
2023/01/07 00:11:00;;;;;;;3.58;2.10;;;;;;;;;;6073921;23;20021;-92
2023/01/07 00:13:30;;;;;;;3.88;2.17;;;;;;;;;;6098387;23;20021;-92
2023/01/07 00:15:58;;;;;;;4.55;2.15;;;;;;;;;;6132043;23;20017;-91
2023/01/07 00:18:29;;;;;;;3.92;2.45;;;;;;;;;;6074310;23;20018;-92
2023/01/07 00:20:59;;;;;;;2.53;2.25;;;;;;;;;;6108362;23;20343;-91
2023/01/07 00:23:27;;;;;;;2.75;2.25;;;;;;;;;;6097467;23;20026;-91
2023/01/07 00:26:00;;;;;;;2.55;2.30;;;;;;;;;;6131049;23;20014;-92
2023/01/07 00:28:30;;;;;;;3.15;2.85;;;;;;;;;;6134482;23;20029;-92
2023/01/07 00:31:00;;;;;;;4.63;3.08;;;;;;;;;;6098254;23;20040;-92
2023/01/07 00:33:34;;;;;;;4.28;2.15;;;;;;;;;;6123253;23;20013;-92
2023/01/07 00:36:02;;;;;;;2.35;2.15;;;;;;;;;;6102590;23;20010;-92
2023/01/07 00:38:30;;;;;;;6.53;2.78;;;;;;;;;;6074484;23;20505;-92
2023/01/07 00:40:57;;;;;;;3.05;2.30;;;;;;;;;;6098336;23;20037;-92
2023/01/07 00:43:27;;;;;;;3.33;2.88;;;;;;;;;;6098281;23;20033;-92
2023/01/07 00:45:54;;;;;;;5.43;1.95;;;;;;;;;;6123461;23;20021;-92
2023/01/07 00:48:26;;;;;;;3.25;2.95;;;;;;;;;;6074947;23;20033;-92
2023/01/07 00:50:55;;;;;;;3.13;2.58;;;;;;;;;;6098299;23;20014;-92
2023/01/07 00:53:23;;;;;;;3.00;2.60;;;;;;;;;;6073675;23;20022;-91
2023/01/07 00:55:56;;;;;;;5.53;2.80;;;;;;;;;;6097763;23;20029;-92
2023/01/07 00:58:24;;;;;;;3.10;2.28;;;;;;;;;;6073497;23;20024;-92
2023/01/07 01:00:55;;;;;;;4.95;2.30;;;;;;;;;;6074188;23;20493;-92
2023/01/07 01:03:22;;;;;;;5.03;2.67;;;;;;;;;;6073631;23;20486;-92
2023/01/07 01:05:52;;;;;;;3.90;3.33;;;;;;;;;;6106249;23;20347;-92
2023/01/07 01:08:23;;;;;;;4.63;3.10;;;;;;;;;;6135674;23;20018;-92
2023/01/07 01:10:53;;;;;;;2.85;2.50;;;;;;;;;;6133896;23;20014;-92
2023/01/07 01:13:23;;;;;;;2.70;2.50;;;;;;;;;;6075775;23;20018;-92
2023/01/07 01:15:52;;;;;;;5.03;2.92;;;;;;;;;;6074946;23;20350;-92
2023/01/07 01:18:22;;;;;;;3.15;2.55;;;;;;;;;;6098381;23;20354;-92
2023/01/07 01:20:50;;;;;;;3.58;2.40;;;;;;;;;;6133792;23;20015;-92
2023/01/07 01:23:17;;;;;;;2.75;2.33;;;;;;;;;;6074345;23;20022;-91
2023/01/07 01:25:48;;;;;;;5.25;3.42;;;;;;;;;;6105547;23;20040;-92
2023/01/07 01:28:15;;;;;;;3.50;3.20;;;;;;;;;;6098194;23;20040;-91
2023/01/07 01:30:46;;;;;;;3.75;2.55;;;;;;;;;;6098842;23;20242;-92
2023/01/07 01:33:13;;;;;;;2.80;2.45;;;;;;;;;;6074822;23;20025;-92
2023/01/07 01:35:41;;;;;;;3.13;2.50;;;;;;;;;;6098029;23;20343;-91
2023/01/07 01:38:11;;;;;;;4.38;2.20;;;;;;;;;;6098429;23;20079;-92
2023/01/07 01:40:40;;;;;;;3.45;2.20;;;;;;;;;;6075112;23;20025;-92
2023/01/07 01:43:28;;;;;;;2.90;2.60;;;;;;;;;;6100478;23;20021;-91
2023/01/07 01:45:56;;;;;;;3.05;1.95;;;;;;;;;;6075196;23;20022;-92
2023/01/07 01:48:27;;;;;;;2.58;2.38;;;;;;;;;;6075993;23;20335;-92
2023/01/07 01:50:54;;;;;;;3.92;2.85;;;;;;;;;;6075422;23;20328;-92
2023/01/07 01:53:26;;;;;;;4.00;3.25;;;;;;;;;;6100840;23;20019;-92
2023/01/07 01:55:58;;;;;;;6.82;3.90;;;;;;;;;;6106353;23;20021;-92
2023/01/07 01:58:35;;;;;;;5.38;2.85;;;;;;;;;;6109487;23;20014;-92
2023/01/07 02:01:06;;;;;;;3.53;3.22;;;;;;;;;;6109397;23;20374;-92
2023/01/07 02:03:34;;;;;;;2.95;2.72;;;;;;;;;;6100794;23;20021;-92
2023/01/07 02:06:02;;;;;;;4.35;3.00;;;;;;;;;;6099375;23;20014;-92
2023/01/07 02:08:30;;;;;;;4.80;3.28;;;;;;;;;;6074825;23;20041;-93
2023/01/07 02:11:08;;;;;;;6.25;3.58;;;;;;;;;;6120284;23;20014;-91
2023/01/07 02:13:46;;;;;;;5.68;3.88;;;;;;;;;;6163502;23;20047;-92
2023/01/07 02:16:20;;;;;;;3.92;2.42;;;;;;;;;;6159573;23;20061;-92
2023/01/07 02:19:04;;;;;;;7.55;3.13;;;;;;;;;;6128831;23;20061;-93
2023/01/07 02:21:46;;;;;;;5.20;2.67;;;;;;;;;;6125364;23;20028;-93
2023/01/07 02:24:38;;;;;;;4.63;2.85;;;;;;;;;;6123891;23;20020;-91
2023/01/07 02:27:45;;;;;;;3.88;2.72;;;;;;;;;;6116431;23;20014;-92
2023/01/07 02:30:34;;;;;;;3.25;2.95;;;;;;;;;;6113231;23;20018;-93
2023/01/07 02:33:35;;;;;;;2.78;2.58;;;;;;;;;;6079311;23;20033;-92
2023/01/07 02:36:24;;;;;;;6.32;3.17;;;;;;;;;;6076774;23;20014;-92
2023/01/07 02:38:59;;;;;;;17.02;3.03;;;;;;;;;;6100720;23;20018;-92
2023/01/07 02:41:44;;;;;;;2.72;2.53;;;;;;;;;;6136008;23;20033;-92
2023/01/07 02:44:17;;;;;;;7.93;3.03;;;;;;;;;;6076219;23;20022;-92
2023/01/07 02:46:51;;;;;;;2.90;2.30;;;;;;;;;;6076402;23;20481;-92
2023/01/07 02:49:20;;;;;;;3.28;2.70;;;;;;;;;;6099656;23;20022;-92
2023/01/07 02:51:48;;;;;;;3.78;2.72;;;;;;;;;;6100473;23;20021;-92
2023/01/07 02:54:22;;;;;;;5.05;2.55;;;;;;;;;;6125216;23;20014;-92
2023/01/07 02:57:17;;;;;;;3.47;2.85;;;;;;;;;;6103118;23;20021;-92
2023/01/07 02:59:59;;;;;;;5.37;3.70;;;;;;;;;;6132217;23;20022;-92
2023/01/07 03:02:50;;;;;;;9.60;2.78;;;;;;;;;;6135489;23;20018;-93
2023/01/07 03:05:28;;;;;;;5.10;2.55;;;;;;;;;;6148072;23;20036;-91
2023/01/07 03:08:07;;;;;;;3.95;2.83;;;;;;;;;;6132370;23;20025;-92
2023/01/07 03:10:40;;;;;;;3.58;2.75;;;;;;;;;;6131249;23;20022;-92
2023/01/07 03:13:12;;;;;;;2.58;2.38;;;;;;;;;;6155405;23;20018;-93
2023/01/07 03:15:43;;;;;;;4.10;2.58;;;;;;;;;;6137792;23;20074;-92
2023/01/07 03:18:16;;;;;;;3.40;2.67;;;;;;;;;;6136459;23;20010;-92
2023/01/07 03:20:47;;;;;;;3.20;2.90;;;;;;;;;;6099659;23;20014;-92
2023/01/07 03:23:16;;;;;;;2.83;2.50;;;;;;;;;;6108435;23;20018;-92
2023/01/07 03:25:48;;;;;;;4.00;2.97;;;;;;;;;;6107471;23;20010;-92
2023/01/07 03:28:18;;;;;;;3.40;2.70;;;;;;;;;;6135622;23;20350;-92
2023/01/07 03:30:49;;;;;;;3.25;2.78;;;;;;;;;;6109073;23;20025;-91
2023/01/07 03:33:21;;;;;;;3.58;2.40;;;;;;;;;;6109407;23;20014;-92
2023/01/07 03:35:53;;;;;;;3.88;2.47;;;;;;;;;;6099165;23;20347;-92
2023/01/07 03:38:22;;;;;;;2.40;2.20;;;;;;;;;;6075573;23;20350;-92
2023/01/07 03:40:52;;;;;;;3.90;2.83;;;;;;;;;;6108565;23;20022;-93
2023/01/07 03:43:20;;;;;;;4.40;2.65;;;;;;;;;;6099022;23;20497;-92
2023/01/07 03:45:49;;;;;;;4.75;2.58;;;;;;;;;;6076110;23;20018;-82
2023/01/07 03:48:17;;;;;;;6.82;3.08;;;;;;;;;;6151753;23;20331;-83
2023/01/07 03:50:44;;;;;;;4.15;3.30;;;;;;;;;;6152942;23;20014;-83
2023/01/07 03:53:15;;;;;;;4.00;2.63;;;;;;;;;;6152214;23;20018;-83
2023/01/07 03:55:45;;;;;;;3.58;2.42;;;;;;;;;;6189028;23;20017;-83
2023/01/07 03:58:13;;;;;;;3.92;2.75;;;;;;;;;;6180137;23;20346;-84
2023/01/07 04:00:42;;;;;;;3.90;3.50;;;;;;;;;;6156985;23;20017;-83
2023/01/07 04:03:18;;;;;;;2.53;2.33;;;;;;;;;;6156872;23;20032;-83
2023/01/07 04:05:47;;;;;;;3.72;2.50;;;;;;;;;;6190088;23;20013;-84
2023/01/07 04:08:16;;;;;;;3.88;3.22;;;;;;;;;;6181227;23;20013;-83
2023/01/07 04:10:43;;;;;;;8.40;2.85;;;;;;;;;;6181918;23;20013;-83
2023/01/07 04:13:13;;;;;;;7.57;2.85;;;;;;;;;;6156581;23;20057;-83
2023/01/07 04:15:44;;;;;;;4.10;2.45;;;;;;;;;;6157436;23;20024;-83
2023/01/07 04:18:11;;;;;;;3.63;2.10;;;;;;;;;;6191081;23;20009;-84
2023/01/07 04:20:39;;;;;;;9.27;3.08;;;;;;;;;;6180701;23;20017;-83
2023/01/07 04:23:06;;;;;;;3.17;2.53;;;;;;;;;;6181442;23;20023;-83
2023/01/07 04:25:37;;;;;;;3.15;2.55;;;;;;;;;;6157455;23;20032;-84
2023/01/07 04:28:10;;;;;;;4.90;2.13;;;;;;;;;;6157069;23;20024;-84
2023/01/07 04:30:40;;;;;;;4.70;2.83;;;;;;;;;;6156238;23;20024;-83
2023/01/07 04:33:08;;;;;;;5.78;2.67;;;;;;;;;;6179603;23;20480;-83
2023/01/07 04:35:35;;;;;;;3.88;2.80;;;;;;;;;;6181572;23;20013;-83
2023/01/07 04:38:03;;;;;;;6.03;2.58;;;;;;;;;;6181283;23;20009;-84
2023/01/07 04:40:30;;;;;;;4.03;2.67;;;;;;;;;;6180126;23;20013;-83
2023/01/07 04:43:00;;;;;;;3.13;2.63;;;;;;;;;;6181296;23;20016;-84
2023/01/07 04:45:30;;;;;;;3.60;3.00;;;;;;;;;;6191554;23;20029;-84
2023/01/07 04:48:00;;;;;;;4.18;2.30;;;;;;;;;;6180646;23;20013;-84
2023/01/07 04:50:29;;;;;;;4.32;3.05;;;;;;;;;;6180352;23;20013;-84
2023/01/07 04:52:58;;;;;;;3.67;2.95;;;;;;;;;;6156338;23;20385;-84
2023/01/07 04:55:27;;;;;;;3.30;2.40;;;;;;;;;;6157029;23;20028;-83
2023/01/07 04:57:57;;;;;;;3.25;2.63;;;;;;;;;;6156646;23;20020;-83
2023/01/07 05:00:26;;;;;;;2.92;2.53;;;;;;;;;;6180838;23;20484;-84
2023/01/07 05:02:55;;;;;;;3.22;2.83;;;;;;;;;;6156176;23;20024;-84
2023/01/07 05:05:24;;;;;;;2.53;2.33;;;;;;;;;;6156843;23;20024;-84
2023/01/07 05:07:51;;;;;;;4.93;2.78;;;;;;;;;;6180735;23;20013;-83
2023/01/07 05:10:22;;;;;;;3.63;3.00;;;;;;;;;;6156546;23;20028;-83
2023/01/07 05:12:49;;;;;;;3.45;2.60;;;;;;;;;;6180523;23;20014;-83
2023/01/07 05:15:18;;;;;;;2.67;2.40;;;;;;;;;;6157300;23;20036;-84
2023/01/07 05:17:47;;;;;;;3.60;2.55;;;;;;;;;;6183529;23;20036;-84
2023/01/07 05:20:17;;;;;;;3.75;2.70;;;;;;;;;;6158485;23;20458;-84
2023/01/07 05:22:45;;;;;;;5.03;2.53;;;;;;;;;;6182660;23;20017;-83
2023/01/07 05:25:15;;;;;;;3.88;2.42;;;;;;;;;;6156884;23;20021;-83
2023/01/07 05:27:44;;;;;;;3.05;2.50;;;;;;;;;;6184320;23;20346;-84
2023/01/07 05:30:12;;;;;;;3.15;2.08;;;;;;;;;;6182627;23;20461;-84
2023/01/07 05:32:42;;;;;;;2.10;1.88;;;;;;;;;;6156577;23;20021;-84
2023/01/07 05:35:13;;;;;;;3.10;2.20;;;;;;;;;;6183568;23;20021;-84
2023/01/07 05:37:43;;;;;;;3.22;2.47;;;;;;;;;;6183320;23;20009;-84
2023/01/07 05:40:13;;;;;;;5.93;2.85;;;;;;;;;;6184308;23;20028;-84
2023/01/07 05:42:40;;;;;;;2.60;2.40;;;;;;;;;;6157696;23;20036;-83
2023/01/07 05:45:11;;;;;;;3.35;2.80;;;;;;;;;;6177835;23;20352;-83
2023/01/07 05:47:40;;;;;;;5.30;3.15;;;;;;;;;;6154308;23;20024;-84
2023/01/07 05:50:14;;;;;;;2.55;2.22;;;;;;;;;;6182912;23;20024;-84
2023/01/07 05:52:41;;;;;;;3.45;2.70;;;;;;;;;;6183540;23;20020;-84
2023/01/07 05:55:11;;;;;;;3.35;2.55;;;;;;;;;;6157534;23;20017;-84
2023/01/07 05:57:38;;;;;;;2.70;2.50;;;;;;;;;;6183110;23;20076;-83
2023/01/07 06:00:09;;;;;;;2.47;2.22;;;;;;;;;;6182621;23;20020;-83
2023/01/07 06:02:42;;;;;;;4.45;2.30;;;;;;;;;;6195088;23;20020;-84
2023/01/07 06:05:09;;;;;;;2.40;2.20;;;;;;;;;;6184007;23;20013;-84
2023/01/07 06:07:38;;;;;;;2.63;2.42;;;;;;;;;;6180905;23;20021;-83
2023/01/07 06:10:09;;;;;;;2.50;2.00;;;;;;;;;;6190772;23;20024;-84
2023/01/07 06:12:37;;;;;;;3.25;2.40;;;;;;;;;;6182792;23;20778;-83
2023/01/07 06:15:09;;;;;;;6.15;2.53;;;;;;;;;;6194398;23;20020;-83
2023/01/07 06:17:37;;;;;;;2.45;2.25;;;;;;;;;;6183628;23;20412;-84
2023/01/07 06:20:05;;;;;;;3.33;2.53;;;;;;;;;;6157427;23;20464;-84
2023/01/07 06:22:32;;;;;;;7.28;3.53;;;;;;;;;;6183755;23;20016;-83
2023/01/07 06:25:04;;;;;;;5.28;2.58;;;;;;;;;;6183445;23;20453;-83
2023/01/07 06:27:33;;;;;;;3.03;2.50;;;;;;;;;;6183963;23;20013;-83
2023/01/07 06:30:00;;;;;;;3.50;2.53;;;;;;;;;;6191370;23;20044;-84
2023/01/07 06:32:28;;;;;;;4.80;2.63;;;;;;;;;;6183270;23;20024;-83
2023/01/07 06:34:55;;;;;;;4.00;3.10;;;;;;;;;;6192315;23;20016;-83
2023/01/07 06:37:22;;;;;;;4.65;3.42;;;;;;;;;;6181810;23;20341;-83
2023/01/07 06:39:49;;;;;;;2.92;2.42;;;;;;;;;;6193195;23;20017;-84
2023/01/07 06:42:18;;;;;;;3.95;2.83;;;;;;;;;;6182980;23;20017;-84
2023/01/07 06:44:45;;;;;;;3.92;2.90;;;;;;;;;;6183216;23;20385;-84
2023/01/07 06:47:12;;;;;;;4.50;2.58;;;;;;;;;;6180086;23;20021;-84
2023/01/07 06:49:42;;;;;;;3.90;3.25;;;;;;;;;;6183088;23;20013;-83
2023/01/07 06:52:09;;;;;;;5.68;2.38;;;;;;;;;;6157521;23;20472;-83
2023/01/07 06:54:38;;;;;;;4.75;2.63;;;;;;;;;;6182715;23;20017;-84
2023/01/07 06:57:06;;;;;;;3.60;2.38;;;;;;;;;;6183619;23;20013;-83
2023/01/07 06:59:34;;;;;;;5.00;2.33;;;;;;;;;;6179748;23;20020;-84
2023/01/07 07:02:01;;;;;;;4.53;3.17;;;;;;;;;;6192329;23;20020;-84
2023/01/07 07:04:31;;;;;;;3.38;2.47;;;;;;;;;;6182447;23;20346;-83
2023/01/07 07:07:03;;;;;;;3.80;2.95;;;;;;;;;;6157022;23;20017;-83
2023/01/07 07:09:30;;;;;;;6.75;3.03;;;;;;;;;;6191403;23;20013;-84
2023/01/07 07:11:57;;;;;;;5.50;2.13;;;;;;;;;;6181231;23;20357;-84
2023/01/07 07:14:25;;;;;;;2.63;2.38;;;;;;;;;;6182628;23;20024;-84
2023/01/07 07:16:53;;;;;;;4.43;2.95;;;;;;;;;;6183834;23;20024;-83
2023/01/07 07:19:20;;;;;;;6.35;2.88;;;;;;;;;;6190734;23;20013;-83
2023/01/07 07:21:50;;;;;;;4.32;2.63;;;;;;;;;;6157317;23;20021;-83
2023/01/07 07:24:17;;;;;;;6.00;2.58;;;;;;;;;;6182290;23;20028;-84
2023/01/07 07:26:45;;;;;;;3.92;2.20;;;;;;;;;;6182836;23;20480;-84
2023/01/07 07:29:12;;;;;;;4.60;2.58;;;;;;;;;;6182738;23;20345;-84
2023/01/07 07:31:40;;;;;;;4.93;3.47;;;;;;;;;;6182545;23;20009;-84
2023/01/07 07:34:09;;;;;;;4.53;4.05;;;;;;;;;;6183084;23;20476;-84
2023/01/07 07:36:38;;;;;;;6.20;3.10;;;;;;;;;;6183481;23;20496;-84
2023/01/07 07:39:08;;;;;;;6.50;4.97;;;;;;;;;;6182256;23;20024;-84
2023/01/07 07:41:36;;;;;;;5.35;4.82;;;;;;;;;;6180580;23;20358;-84
2023/01/07 07:44:07;;;;;;;5.82;4.75;;;;;;;;;;6191770;23;20021;-84
2023/01/07 07:46:37;;;;;;;6.80;4.90;;;;;;;;;;6181519;23;20024;-84
2023/01/07 07:49:05;;;;;;;6.28;3.70;;;;;;;;;;6181477;23;20013;-83
2023/01/07 07:51:33;;;;;;;4.60;3.50;;;;;;;;;;6181521;23;20104;-84
2023/01/07 07:54:01;;;;;;;5.13;3.50;;;;;;;;;;6181745;23;20017;-83
2023/01/07 07:56:30;;;;;;;6.40;4.55;;;;;;;;;;6184176;23;20013;-83
2023/01/07 07:58:58;;;;;;;6.28;5.28;;;;;;;;;;6197240;23;20023;-83
2023/01/07 08:01:28;;;;;;;6.43;4.20;;;;;;;;;;6207181;23;20013;-83
2023/01/07 08:03:57;;;;;;;3.47;2.38;;;;;;;;;;6206469;23;20016;-83
2023/01/07 08:06:25;;;;;;;3.00;2.40;;;;;;;;;;6160279;23;20013;-83
2023/01/07 08:08:56;;;;;;;2.63;2.42;;;;;;;;;;6184087;23;20020;-83
2023/01/07 08:11:23;;;;;;;4.38;2.50;;;;;;;;;;6181479;23;20017;-84
2023/01/07 08:13:53;;;;;;;4.90;3.38;;;;;;;;;;6191135;23;20326;-84
2023/01/07 08:16:20;;;;;;;4.45;3.72;;;;;;;;;;6180709;23;20017;-84
2023/01/07 08:18:47;;;;;;;5.22;4.53;;;;;;;;;;6181374;23;20016;-83
2023/01/07 08:21:14;;;;;;;5.80;3.60;;;;;;;;;;6182376;23;20017;-83
2023/01/07 08:23:42;;;;;;;5.30;3.38;;;;;;;;;;6182772;23;20013;-83
2023/01/07 08:26:10;;;;;;;6.78;3.78;;;;;;;;;;6180392;23;20020;-83
2023/01/07 08:28:38;;;;;;;4.90;4.07;;;;;;;;;;6181038;23;20013;-83
2023/01/07 08:31:09;;;;;;;5.60;4.40;;;;;;;;;;6182426;23;20484;-83
2023/01/07 08:33:38;;;;;;;6.75;5.70;;;;;;;;;;6182025;23;20476;-83
2023/01/07 08:36:09;;;;;;;6.63;5.25;;;;;;;;;;6180284;23;20359;-83
2023/01/07 08:38:37;;;;;;;6.22;4.35;;;;;;;;;;6155055;23;20013;-83
2023/01/07 08:41:04;;;;;;;5.88;5.20;;;;;;;;;;6181319;23;20021;-83
2023/01/07 08:43:35;;;;;;;6.15;5.40;;;;;;;;;;6181523;23;20013;-84
2023/01/07 08:46:03;;;;;;;4.82;4.25;;;;;;;;;;6181055;23;20017;-83
2023/01/07 08:48:30;;;;;;;5.22;4.68;;;;;;;;;;6191037;23;20024;-83
2023/01/07 08:50:59;;;;;;;5.25;3.97;;;;;;;;;;6179752;23;20020;-83
2023/01/07 08:53:29;;;;;;;5.53;5.03;;;;;;;;;;6181445;23;20013;-83
2023/01/07 08:55:59;;;;;;;5.10;4.03;;;;;;;;;;6181959;23;20040;-83
2023/01/07 08:58:28;;;;;;;4.20;3.80;;;;;;;;;;6181324;23;20017;-81
2023/01/07 09:01:02;;;;;;;5.55;4.47;;;;;;;;;;6181498;23;20020;-82
2023/01/07 09:03:29;;;;;;;9.85;5.32;;;;;;;;;;6192861;23;20017;-82
2023/01/07 09:05:59;;;;;;;5.82;5.22;;;;;;;;;;6180098;23;20025;-82
2023/01/07 09:08:26;;;;;;;6.63;5.03;;;;;;;;;;6180872;23;20013;-82
2023/01/07 09:10:54;;;;;;;5.70;4.78;;;;;;;;;;6180960;23;20017;-82
2023/01/07 09:13:24;;;;;;;6.47;4.20;;;;;;;;;;6191689;23;20017;-83
2023/01/07 09:15:54;;;;;;;6.47;4.13;;;;;;;;;;6181382;23;20323;-82
2023/01/07 09:18:22;;;;;;;4.82;4.35;;;;;;;;;;6189625;23;20062;-83
2023/01/07 09:20:50;;;;;;;5.15;4.18;;;;;;;;;;6181341;23;20349;-83
2023/01/07 09:23:17;;;;;;;7.35;5.80;;;;;;;;;;6179691;23;20024;-83
2023/01/07 09:25:44;;;;;;;7.25;6.55;;;;;;;;;;6181172;23;20032;-84
2023/01/07 09:28:11;;;;;;;5.30;3.95;;;;;;;;;;6181159;23;20014;-83
2023/01/07 09:30:39;;;;;;;4.07;2.92;;;;;;;;;;6181721;23;20013;-83
2023/01/07 09:33:09;;;;;;;1.85;1.67;;;;;;;;;;6181599;23;20029;-83
2023/01/07 09:35:38;;;;;;;2.17;1.70;;;;;;;;;;6181665;23;20020;-84
2023/01/07 09:38:05;;;;;;;2.03;1.50;;;;;;;;;;6179858;23;20017;-84
2023/01/07 09:40:36;;;;;;;2.00;1.85;;;;;;;;;;6181449;23;20024;-83
2023/01/07 09:43:07;;;;;;;2.25;1.60;;;;;;;;;;6191725;23;20013;-83
2023/01/07 09:45:36;;;;;;;2.10;1.58;;;;;;;;;;6181135;23;20017;-83
2023/01/07 09:59:52;;;;;;;3.38;3.15;;;;;;;;;;6179856;23;20025;-90
2023/01/07 10:06:01;;;;;;;4.00;2.53;;;;;;;;;;6187560;23;20025;-90
2023/01/07 10:08:41;;;;;;;4.30;3.10;;;;;;;;;;6111678;23;20021;-90
2023/01/07 10:11:19;;;;;;;2.72;2.47;;;;;;;;;;6140366;23;20028;-89
2023/01/07 10:14:27;;;;;;;4.82;3.53;;;;;;;;;;6134537;23;20018;-90
2023/01/07 10:17:05;;;;;;;3.95;3.45;;;;;;;;;;6108315;23;20051;-90
2023/01/07 10:19:54;;;;;;;5.65;2.30;;;;;;;;;;6119428;23;20017;-90
2023/01/07 10:22:25;;;;;;;2.22;1.70;;;;;;;;;;6113963;23;20021;-89
2023/01/07 10:24:58;;;;;;;3.35;2.78;;;;;;;;;;6110873;23;20021;-92
2023/01/07 10:27:30;;;;;;;1.67;1.40;;;;;;;;;;6111889;23;20022;-91
2023/01/07 10:30:00;;;;;;;1.50;1.40;;;;;;;;;;6112709;23;20017;-91
2023/01/07 10:32:35;;;;;;;2.70;1.90;;;;;;;;;;6137400;23;20017;-90
2023/01/07 10:35:13;;;;;;;1.50;1.40;;;;;;;;;;6112292;23;20029;-91
2023/01/07 10:37:42;;;;;;;4.03;2.03;;;;;;;;;;6153487;23;20456;-93
2023/01/07 10:40:23;;;;;;;2.97;1.65;;;;;;;;;;6109541;23;20021;-92
2023/01/07 10:42:56;;;;;;;2.33;1.38;;;;;;;;;;6115629;23;20013;-93
2023/01/07 10:45:39;;;;;;;;;;;;;;;;;;6110581;23;20021;-92
2023/01/07 10:48:44;;;;;;;3.05;2.38;;;;;;;;;;6103684;23;19917;-91
2023/01/07 10:55:15;;;;;;;6.45;3.60;;;;;;;;;;6106633;23;20012;-93
2023/01/07 10:57:42;;;;;;;2.33;1.50;;;;;;;;;;6110615;23;20027;-91
2023/01/07 11:00:14;;;;;;;4.82;2.40;;;;;;;;;;6114884;23;20018;-91
2023/01/07 11:02:56;;;;;;;2.65;2.30;;;;;;;;;;6113755;23;20026;-91
2023/01/07 11:06:16;;;;;;;3.25;1.70;;;;;;;;;;6108241;23;20025;-91
2023/01/07 11:08:53;;;;;;;2.75;1.60;;;;;;;;;;6131931;23;20029;-91
2023/01/07 11:11:26;;;;;;;2.72;1.60;;;;;;;;;;6113929;23;20023;-92
2023/01/07 11:14:00;;;;;;;1.92;1.70;;;;;;;;;;6087807;23;20017;-91
2023/01/07 11:16:34;;;;;;;3.22;2.22;;;;;;;;;;6113172;23;20018;-93
2023/01/07 11:19:22;;;;;;;2.17;1.50;;;;;;;;;;6145601;23;20360;-91
2023/01/07 11:21:54;;;;;;;3.60;2.20;;;;;;;;;;6145937;23;20449;-91
2023/01/07 11:28:47;;;;;;;1.65;1.55;;;;;;;;;;6044113;23;20026;-91
2023/01/07 11:31:15;;;;;;;3.08;2.00;;;;;;;;;;6113521;23;20017;-90
2023/01/07 11:33:53;;;;;;;1.98;1.48;;;;;;;;;;6132170;23;20014;-91
2023/01/07 11:36:20;;;;;;;1.77;1.63;;;;;;;;;;6090968;23;20031;-91
2023/01/07 11:38:50;;;;;;;2.35;1.30;;;;;;;;;;6090603;23;20028;-90
2023/01/07 11:41:30;;;;;;;1.88;1.67;;;;;;;;;;6117185;23;20020;-92
2023/01/07 11:44:18;;;;;;;2.22;1.33;;;;;;;;;;6124119;23;20032;-93
2023/01/07 11:47:05;;;;;;;3.33;1.98;;;;;;;;;;6124929;23;20170;-90
2023/01/07 11:50:08;;;;;;;2.22;1.60;;;;;;;;;;6107907;23;20022;-92
2023/01/07 11:52:42;;;;;;;3.35;1.55;;;;;;;;;;6150102;23;20028;-91
2023/01/07 11:55:19;;;;;;;2.88;2.20;;;;;;;;;;6111337;23;20026;-91
2023/01/07 11:57:57;;;;;;;1.30;1.15;;;;;;;;;;6105761;23;20018;-90
2023/01/07 12:00:30;;;;;;;2.92;1.67;;;;;;;;;;6107507;23;20028;-92
2023/01/07 12:03:06;;;;;;;2.92;1.77;;;;;;;;;;6105588;23;20021;-91
2023/01/07 12:05:33;;;;;;;2.88;1.42;;;;;;;;;;6104035;23;20022;-91
2023/01/07 12:08:16;;;;;;;2.65;1.42;;;;;;;;;;6129967;23;20021;-91
2023/01/07 12:10:45;;;;;;;2.40;1.50;;;;;;;;;;6104381;23;20017;-91
2023/01/07 12:13:22;;;;;;;1.65;1.30;;;;;;;;;;6106424;23;20017;-92
2023/01/07 12:16:03;;;;;;;2.28;1.13;;;;;;;;;;6104249;23;20024;-93
2023/01/07 12:18:43;;;;;;;1.60;1.20;;;;;;;;;;6102576;23;20025;-90
2023/01/07 12:21:43;;;;;;;1.25;1.15;;;;;;;;;;6104726;23;20017;-91
2023/01/07 12:24:38;;;;;;;2.13;1.60;;;;;;;;;;6130405;23;20028;-92
2023/01/07 12:27:17;;;;;;;2.22;1.10;;;;;;;;;;6104257;23;20580;-90
2023/01/07 12:30:08;;;;;;;1.73;1.60;;;;;;;;;;6104789;23;20035;-91
2023/01/07 12:32:45;;;;;;;2.13;1.75;;;;;;;;;;6104365;23;20025;-91
2023/01/07 12:35:19;;;;;;;3.08;2.30;;;;;;;;;;6120283;23;20029;-92
2023/01/07 12:37:59;;;;;;;3.10;2.28;;;;;;;;;;6122112;23;20214;-92
2023/01/07 12:40:32;;;;;;;4.70;1.70;;;;;;;;;;6179010;23;20022;-91
2023/01/07 12:43:03;;;;;;;2.35;1.80;;;;;;;;;;6141123;23;20017;-91
2023/01/07 12:45:49;;;;;;;2.15;1.63;;;;;;;;;;6118733;23;20013;-91
2023/01/07 12:48:18;;;;;;;;;;;;;;;;;;6111731;23;20014;-91
2023/01/07 12:50:54;;;;;;;1.92;1.63;;;;;;;;;;6147543;23;19917;-91
2023/01/07 12:53:27;;;;;;;2.85;1.35;;;;;;;;;;6115153;23;20021;-92
2023/01/07 12:55:58;;;;;;;2.55;1.73;;;;;;;;;;6126466;23;20021;-90
2023/01/07 12:58:40;;;;;;;2.20;1.75;;;;;;;;;;6128992;23;20031;-91
2023/01/07 13:01:17;;;;;;;2.28;1.83;;;;;;;;;;6141630;23;20449;-89
2023/01/07 13:03:49;;;;;;;1.48;1.10;;;;;;;;;;6111470;23;20033;-91
2023/01/07 13:06:20;;;;;;;1.83;1.50;;;;;;;;;;6112686;23;20021;-90
2023/01/07 13:08:54;;;;;;;2.97;1.80;;;;;;;;;;6120797;23;20017;-91
2023/01/07 13:14:38;;;;;;;3.58;2.20;;;;;;;;;;6141037;23;20023;-91
2023/01/07 13:17:15;;;;;;;3.00;2.00;;;;;;;;;;6107867;23;20025;-92
2023/01/07 13:19:45;;;;;;;2.13;1.33;;;;;;;;;;6104544;23;20361;-92
2023/01/07 13:22:30;;;;;;;;;;;;;;;;;;;;;
2023/01/07 13:25:16;;;;;;;3.22;2.17;;;;;;;;;;6107979;23;20021;-92
2023/01/07 13:28:30;;;;;;;4.00;2.78;;;;;;;;;;6107382;23;20029;-92
2023/01/07 13:34:16;;;;;;;2.47;1.65;;;;;;;;;;6108539;23;20028;-92
2023/01/07 13:36:51;;;;;;;2.78;2.28;;;;;;;;;;6108204;23;20020;-93
2023/01/07 13:39:40;;;;;;;1.60;1.50;;;;;;;;;;6144650;23;20017;-92
2023/01/07 13:42:24;;;;;;;2.75;1.75;;;;;;;;;;6133868;23;20018;-91
2023/01/07 13:45:03;;;;;;;1.70;1.58;;;;;;;;;;6134312;23;20022;-91
2023/01/07 13:47:43;;;;;;;1.35;1.02;;;;;;;;;;6143665;23;20029;-93
2023/01/07 13:50:26;;;;;;;1.52;1.23;;;;;;;;;;6108765;23;20483;-90
2023/01/07 13:52:59;;;;;;;1.38;1.17;;;;;;;;;;6110148;23;20028;-90
2023/01/07 13:55:33;;;;;;;2.38;1.58;;;;;;;;;;6108961;23;20017;-93
2023/01/07 13:58:01;;;;;;;4.75;1.85;;;;;;;;;;6109093;23;20021;-93
2023/01/07 14:00:41;;;;;;;2.10;1.42;;;;;;;;;;6108729;23;20032;-91
2023/01/07 14:03:34;;;;;;;1.70;1.35;;;;;;;;;;6108600;23;20025;-92
2023/01/07 14:06:41;;;;;;;4.78;2.08;;;;;;;;;;6134049;23;20021;-91
2023/01/07 14:09:32;;;;;;;1.52;1.40;;;;;;;;;;6107451;23;20027;-92
2023/01/07 14:12:39;;;;;;;4.63;1.80;;;;;;;;;;6132550;23;20025;-92
2023/01/07 14:15:44;;;;;;;2.13;1.35;;;;;;;;;;6110682;23;20053;-92
2023/01/07 14:19:00;;;;;;;2.85;2.38;;;;;;;;;;6110894;23;20017;-93
2023/01/07 14:21:54;;;;;;;2.20;2.00;;;;;;;;;;6042840;23;20469;-91
2023/01/07 14:24:54;;;;;;;2.90;2.33;;;;;;;;;;6094019;23;20025;-93
2023/01/07 14:27:37;;;;;;;2.60;2.05;;;;;;;;;;6107358;23;20043;-91
2023/01/07 14:30:19;;;;;;;3.95;2.40;;;;;;;;;;6130446;23;20017;-93
2023/01/07 14:32:47;;;;;;;3.63;3.05;;;;;;;;;;6105927;23;20017;-92
2023/01/07 14:35:27;;;;;;;4.82;3.45;;;;;;;;;;6108256;23;20025;-91
2023/01/07 14:37:55;;;;;;;4.47;3.35;;;;;;;;;;6130671;23;20078;-92
2023/01/07 14:40:52;;;;;;;4.25;2.92;;;;;;;;;;6109103;23;20021;-90
2023/01/07 14:43:47;;;;;;;4.88;4.40;;;;;;;;;;6078659;23;20642;-91
2023/01/07 14:46:43;;;;;;;3.47;2.58;;;;;;;;;;6107016;23;20018;-91
2023/01/07 14:49:17;;;;;;;5.03;3.97;;;;;;;;;;6107026;23;20023;-91
2023/01/07 14:51:55;;;;;;;5.72;3.35;;;;;;;;;;6107710;23;20372;-90
2023/01/07 14:55:12;;;;;;;5.25;3.47;;;;;;;;;;6112516;23;20021;-90
2023/01/07 14:57:48;;;;;;;5.65;3.85;;;;;;;;;;6104867;23;20025;-91
2023/01/07 15:01:06;;;;;;;4.78;4.05;;;;;;;;;;6112749;23;20017;-90
2023/01/07 15:04:12;;;;;;;4.18;3.13;;;;;;;;;;5973268;23;20028;-91
2023/01/07 15:06:42;;;;;;;5.05;3.20;;;;;;;;;;5933849;23;20020;-94
2023/01/07 15:17:43;;;;;;;6.65;3.42;;;;;;;;;;6128970;23;20025;-91
2023/01/07 15:20:11;;;;;;;4.47;3.33;;;;;;;;;;6106919;23;20361;-91
2023/01/07 15:22:51;;;;;;;4.20;3.10;;;;;;;;;;6129533;23;20483;-92
2023/01/07 15:25:43;;;;;;;5.05;3.33;;;;;;;;;;6105634;23;20014;-92
2023/01/07 15:28:16;;;;;;;4.72;3.50;;;;;;;;;;6105666;23;20017;-92
2023/01/07 15:30:53;;;;;;;5.88;3.67;;;;;;;;;;6105553;23;20465;-92
2023/01/07 15:33:47;;;;;;;4.85;4.10;;;;;;;;;;6105771;23;20040;-92
2023/01/07 15:36:16;;;;;;;4.50;3.97;;;;;;;;;;6130891;23;20014;-93
2023/01/07 15:38:48;;;;;;;4.13;2.63;;;;;;;;;;6103046;23;20021;-92
2023/01/07 15:41:47;;;;;;;2.70;2.33;;;;;;;;;;6105029;23;20017;-93
2023/01/07 15:44:24;;;;;;;4.10;2.47;;;;;;;;;;6103471;23;20523;-90
2023/01/07 15:49:48;;;;;;;3.63;1.83;;;;;;;;;;6210337;23;20021;-91
2023/01/07 15:52:23;;;;;;;3.42;2.22;;;;;;;;;;6186449;23;20693;-90
2023/01/07 15:54:53;;;;;;;4.15;2.95;;;;;;;;;;6186224;23;20019;-90
2023/01/07 15:57:26;;;;;;;6.10;2.65;;;;;;;;;;6186468;23;20020;-90
2023/01/07 15:59:54;;;;;;;5.10;2.75;;;;;;;;;;6184463;23;20057;-90
2023/01/07 16:02:26;;;;;;;3.35;2.28;;;;;;;;;;6161990;23;20221;-90
2023/01/07 16:04:59;;;;;;;5.80;2.70;;;;;;;;;;6187429;23;20611;-90
2023/01/07 16:07:28;;;;;;;3.40;2.65;;;;;;;;;;6186551;23;20028;-90